Ana Sayfa
METAR-TAF:

METAR-TAF

Havaalanları :

Maiduguri, Nijerya

Enlem: 11-51N, Boylam: 013-05E, yükseklik: 354 m

METAR: eksik

Saat: 21:22 (20:22 UTC)

Tahmin

Rapor saat 17:30 UTC de 2 saat ve 52 dakika önce yapıldı.
Ayın 31'si saat 18 UTC'den ayın 01'si saat 24 UTC'ye kadar geçerli Tahmin
Rüzgar kuzeydoğudan 8 kt
Görüş mesafesi: 8000 m
Geçici
ayın 01'si saat 06 UTC'den ayın 01'si saat 09 UTC'ye kadar
Görüş mesafesi: 5000 m
Toz Pusu

TAF: DNMA 311730Z 3118/0124 04008KT 8000 NSW NSC TEMPO 0106/0109 5000 HZ

4.000'den fazla havaalanı için hava durumu gözlemleri ve tahminleri (METAR ve TAF raporları).

Kullanılabilir istasyonlar harita üzerinde sarı ve kırmızı noktalarla gösterilir.

İstasyonun adını görmek için fareyi noktanın üzerinde gezdirin.

Sonrasında hava gözlem ve tahminlerini görmek için tıklayın.

Haritayı değiştirmek için: yaklaştırmak için siyah artı işaretli yeşil düğmeye ve uzaklaştırmak için de eksi işaretli düğmeye hızla tıklayın; bitişik haritalar için yeşil okları kullanın.


METAR-TAF: